Time;durP1;ratioP1;P1;durP2;ratioP2;P2;SDS_P1;SDS_P2;PMS_P1;PMS_P2;Temp;Humidity;BMP_temperature;BMP_pressure;BME280_temperature;BME280_humidity;BME280_pressure;Samples;Min_cycle;Max_cycle;Signal;HPM_P1;HPM_P2
2022/04/18 00:00:23;;;;;;;2.92;2.63;;;;;;;12.37;63.42;100861.13;5001574;28;102410;-49
2022/04/18 00:02:53;;;;;;;3.17;2.22;;;;;;;12.37;63.29;100849.38;5006867;27;101888;-49
2022/04/18 00:05:20;;;;;;;2.90;2.42;;;;;;;12.36;63.37;100845.84;5008866;27;102434;-48
2022/04/18 00:07:48;;;;;;;3.50;2.33;;;;;;;12.38;63.38;100861.94;5006730;27;103988;-49
2022/04/18 00:10:15;;;;;;;2.65;2.45;;;;;;;12.37;63.46;100843.91;5004451;27;102375;-50
2022/04/18 00:13:02;;;;;;;2.67;2.47;;;;;;;12.38;63.04;100840.13;4999341;27;102410;-49
2022/04/18 00:15:29;;;;;;;2.53;2.20;;;;;;;12.37;63.53;100841.19;5025442;27;102632;-49
2022/04/18 00:17:58;;;;;;;3.55;2.75;;;;;;;12.38;63.41;100840.13;5017113;27;103993;-49
2022/04/18 00:20:27;;;;;;;;;;;;;;;12.36;63.29;100843.09;4995196;28;102344;-49
2022/04/18 00:22:57;;;;;;;2.63;2.25;;;;;;;12.37;63.29;100833.84;4999026;27;102574;-50
2022/04/18 00:25:23;;;;;;;2.30;2.10;;;;;;;12.37;63.20;100835.72;5006093;27;102312;-49
2022/04/18 00:28:12;;;;;;;2.75;2.53;;;;;;;12.37;63.28;100824.81;4999582;27;104824;-49
2022/04/18 00:30:40;;;;;;;3.03;2.42;;;;;;;12.37;63.15;100822.09;4993347;28;102740;-49
2022/04/18 00:33:26;;;;;;;2.65;2.30;;;;;;;12.36;63.31;100818.53;4999143;27;102389;-49
2022/04/18 00:35:53;;;;;;;2.33;2.13;;;;;;;12.36;63.36;100813.09;4996878;28;102376;-49
2022/04/18 00:38:20;;;;;;;2.80;2.25;;;;;;;12.35;63.35;100808.75;4998948;28;104218;-50
2022/04/18 00:40:46;;;;;;;2.58;2.10;;;;;;;12.36;63.44;100804.09;5007768;27;102331;-50
2022/04/18 00:43:15;;;;;;;3.00;2.47;;;;;;;12.35;63.08;100814.19;5006755;27;102251;-51
2022/04/18 00:45:41;;;;;;;2.60;2.40;;;;;;;12.35;62.81;100802.47;5020815;27;102700;-50
2022/04/18 00:48:08;;;;;;;3.33;2.10;;;;;;;12.35;63.10;100797.00;4992681;28;103758;-50
2022/04/18 00:50:36;;;;;;;2.38;2.00;;;;;;;12.35;63.20;100807.94;5001065;28;102482;-49
2022/04/18 00:53:04;;;;;;;3.00;2.30;;;;;;;12.36;63.12;100795.91;4988855;28;102267;-49
2022/04/18 00:55:34;;;;;;;2.93;2.40;;;;;;;12.35;63.18;100797.81;5003887;28;102290;-49
2022/04/18 00:58:01;;;;;;;2.83;2.58;;;;;;;12.36;63.19;100793.16;5005210;28;103978;-50
2022/04/18 01:00:35;;;;;;;2.47;2.28;;;;;;;12.36;63.14;100791.25;4988420;28;102741;-50
2022/04/18 01:03:02;;;;;;;2.15;1.95;;;;;;;12.35;62.92;100786.91;5038888;27;102657;-49
2022/04/18 01:05:29;;;;;;;2.30;2.10;;;;;;;12.35;63.05;100783.38;4994218;27;102331;-49
2022/04/18 01:08:04;;;;;;;2.42;2.05;;;;;;;12.35;63.12;100788.81;4995935;28;103905;-49
2022/04/18 01:10:31;;;;;;;2.65;2.03;;;;;;;12.34;63.28;100787.19;4998628;28;102406;-49
2022/04/18 01:12:57;;;;;;;2.58;2.00;;;;;;;12.35;63.21;100788.81;5001433;27;102765;-49
2022/04/18 01:15:24;;;;;;;2.20;2.00;;;;;;;12.34;62.86;100779.81;5033804;27;103053;-49
2022/04/18 01:17:51;;;;;;;2.13;1.92;;;;;;;12.34;63.16;100784.47;5004212;27;103669;-50
2022/04/18 01:20:18;;;;;;;2.05;1.90;;;;;;;12.33;63.05;100780.09;4989125;28;102093;-50
2022/04/18 01:22:51;;;;;;;2.70;2.10;;;;;;;12.34;63.35;100776.28;4995138;28;102293;-49
2022/04/18 01:31:03;;;;;;;2.20;1.85;;;;;;;12.32;63.10;100778.47;4997987;27;102304;-49
2022/04/18 01:33:30;;;;;;;2.83;2.15;;;;;;;12.34;63.36;100779.00;5008520;27;102651;-49
2022/04/18 01:35:59;;;;;;;2.28;2.08;;;;;;;12.34;63.42;100781.75;5014120;27;102827;-49
2022/04/18 01:38:27;;;;;;;2.28;1.92;;;;;;;12.34;63.13;100779.00;5016692;27;103854;-49
2022/04/18 01:40:54;;;;;;;2.58;1.80;;;;;;;12.33;63.20;100777.34;5015825;27;102306;-49
2022/04/18 01:43:21;;;;;;;3.17;2.20;;;;;;;12.33;63.65;100771.91;4997279;27;102160;-49
2022/04/18 01:45:48;;;;;;;2.08;1.88;;;;;;;12.33;63.17;100771.91;5003474;27;102304;-50
2022/04/18 01:48:15;;;;;;;2.10;1.90;;;;;;;12.32;63.42;100782.00;5000076;27;103932;-50
2022/04/18 01:50:41;;;;;;;1.92;1.73;;;;;;;12.33;63.21;100777.34;5005249;27;102044;-49
2022/04/18 01:53:08;;;;;;;1.95;1.85;;;;;;;12.32;63.21;100773.81;5006869;27;102269;-49
2022/04/18 01:55:37;;;;;;;2.53;1.70;;;;;;;12.31;63.04;100774.91;5002689;27;102549;-50
2022/04/18 01:58:05;;;;;;;1.80;1.70;;;;;;;12.32;63.30;100773.81;5009274;27;103951;-50
2022/04/18 02:00:32;;;;;;;2.58;2.05;;;;;;;12.32;63.16;100764.81;5007386;27;102167;-48
2022/04/18 02:02:58;;;;;;;2.10;1.90;;;;;;;12.33;63.03;100766.44;5005201;28;102261;-50
2022/04/18 02:05:25;;;;;;;2.10;1.90;;;;;;;12.32;63.26;100759.34;5007693;27;102172;-49
2022/04/18 02:07:52;;;;;;;2.15;1.95;;;;;;;12.32;63.06;100764.81;4997268;27;103874;-48
2022/04/18 02:10:18;;;;;;;2.10;1.90;;;;;;;12.31;63.14;100764.00;4999833;28;102830;-49
2022/04/18 02:12:54;;;;;;;2.30;2.08;;;;;;;12.31;63.30;100768.66;5006805;27;102123;-49
2022/04/18 02:15:21;;;;;;;1.87;1.77;;;;;;;12.32;63.41;100775.75;5010251;27;102177;-49
2022/04/18 02:17:47;;;;;;;2.45;1.70;;;;;;;12.32;63.26;100778.47;5009871;27;104026;-49
2022/04/18 02:20:14;;;;;;;1.67;1.58;;;;;;;12.31;63.40;100780.38;5006039;27;102399;-49
2022/04/18 02:22:42;;;;;;;2.00;1.85;;;;;;;12.31;63.05;100779.56;5007571;27;102429;-49
2022/04/18 02:25:09;;;;;;;1.92;1.73;;;;;;;12.31;63.09;100780.38;4997982;28;102215;-48
2022/04/18 02:27:36;;;;;;;2.80;1.83;;;;;;;12.30;63.52;100773.31;5008473;28;104184;-49
2022/04/18 02:30:06;;;;;;;1.90;1.70;;;;;;;12.31;63.32;100774.13;5002451;27;102535;-50
2022/04/18 02:32:49;;;;;;;2.00;1.80;;;;;;;12.30;63.29;100778.75;5007819;28;102379;-48
2022/04/18 02:35:17;;;;;;;1.77;1.67;;;;;;;12.30;63.48;100777.91;5010120;27;102511;-49
2022/04/18 02:37:43;;;;;;;1.90;1.80;;;;;;;12.31;63.45;100779.56;4996889;27;103808;-49
2022/04/18 02:40:11;;;;;;;3.13;2.03;;;;;;;12.30;63.36;100773.31;5007740;28;102691;-49
2022/04/18 02:42:37;;;;;;;1.85;1.75;;;;;;;12.30;63.17;100769.72;5005734;28;102456;-49
2022/04/18 02:45:09;;;;;;;1.98;1.77;;;;;;;12.30;63.28;100762.38;5002412;28;102153;-49
2022/04/18 02:47:37;;;;;;;2.00;1.80;;;;;;;12.30;62.96;100772.47;5008093;28;104107;-49
2022/04/18 02:50:05;;;;;;;2.00;1.90;;;;;;;12.31;63.27;100771.38;5001166;28;102745;-49
2022/04/18 02:52:32;;;;;;;2.03;1.83;;;;;;;12.28;63.07;100764.56;5002530;27;102151;-49
2022/04/18 02:54:59;;;;;;;1.90;1.70;;;;;;;12.27;63.36;100763.75;5010876;28;102795;-49
2022/04/18 02:57:26;;;;;;;2.15;1.77;;;;;;;12.30;63.37;100772.47;4998914;28;103918;-49
2022/04/18 02:59:52;;;;;;;2.30;2.10;;;;;;;12.29;63.27;100773.56;5009282;27;102432;-48
2022/04/18 03:02:20;;;;;;;1.92;1.73;;;;;;;12.30;63.20;100772.47;5007560;27;102731;-49
2022/04/18 03:04:47;;;;;;;2.53;1.87;;;;;;;12.29;63.37;100768.09;5008942;27;102356;-49
2022/04/18 03:07:14;;;;;;;2.10;1.98;;;;;;;12.29;63.09;100765.38;5000191;27;103907;-49
2022/04/18 03:09:40;;;;;;;2.03;1.83;;;;;;;12.29;62.99;100768.09;5005425;27;102032;-49
2022/04/18 03:12:08;;;;;;;2.65;2.00;;;;;;;12.28;63.18;100764.56;5008705;27;102756;-49
2022/04/18 03:14:35;;;;;;;2.30;2.10;;;;;;;12.27;63.12;100763.75;5028864;27;102284;-49
2022/04/18 03:17:01;;;;;;;2.38;1.90;;;;;;;12.29;63.15;100759.91;5027919;27;103929;-52
2022/04/18 03:19:29;;;;;;;2.50;2.00;;;;;;;12.27;63.36;100758.28;5027299;27;102272;-49
2022/04/18 03:21:56;;;;;;;2.33;2.13;;;;;;;12.27;63.28;100768.41;5024124;27;102447;-50
2022/04/18 03:24:22;;;;;;;2.13;1.92;;;;;;;12.27;63.46;100758.28;5029192;27;102573;-49
2022/04/18 03:26:49;;;;;;;2.00;1.80;;;;;;;12.27;63.20;100752.03;5020925;27;104045;-50
2022/04/18 03:29:15;;;;;;;2.78;2.05;;;;;;;12.27;63.13;100758.28;5018747;27;102438;-50
2022/04/18 03:31:42;;;;;;;2.40;2.08;;;;;;;12.27;63.11;100752.03;5030540;27;102451;-49
2022/04/18 03:34:09;;;;;;;2.17;1.88;;;;;;;12.27;63.14;100758.28;5033831;27;102470;-49
2022/04/18 03:42:09;;;;;;;2.53;1.90;;;;;;;12.26;63.29;100753.94;5006804;27;102548;-51
2022/04/18 03:44:39;;;;;;;2.40;2.20;;;;;;;12.26;63.35;100756.69;5007630;28;102367;-50
2022/04/18 03:47:06;;;;;;;3.45;2.20;;;;;;;12.25;63.27;100754.22;4994893;27;103869;-50
2022/04/18 03:49:33;;;;;;;2.90;2.40;;;;;;;12.25;63.44;100752.28;5005719;27;102237;-50
2022/04/18 03:52:01;;;;;;;2.45;2.25;;;;;;;12.25;63.11;100749.56;4996287;27;102169;-49
2022/04/18 03:54:29;;;;;;;2.60;2.40;;;;;;;12.26;63.50;100751.22;5002878;27;102583;-49
2022/04/18 03:56:55;;;;;;;2.85;2.28;;;;;;;12.25;63.44;100760.47;4995360;27;103903;-51
2022/04/18 03:59:22;;;;;;;2.67;2.13;;;;;;;12.23;63.11;100757.22;4994613;27;102711;-49
2022/04/18 04:01:48;;;;;;;2.28;2.08;;;;;;;12.24;63.29;100756.13;4989754;28;102029;-50
2022/04/18 04:04:15;;;;;;;2.80;2.47;;;;;;;12.25;63.39;100752.28;5004985;27;102422;-50
2022/04/18 04:06:42;;;;;;;2.40;2.20;;;;;;;12.24;63.55;100750.66;4999496;27;103382;-49
2022/04/18 04:09:10;;;;;;;2.42;2.10;;;;;;;12.23;63.44;100746.31;4993923;27;102159;-49
2022/04/18 04:11:37;;;;;;;3.65;2.47;;;;;;;12.24;63.50;100747.13;4989722;27;102358;-49
2022/04/18 04:14:03;;;;;;;3.30;2.20;;;;;;;12.24;63.42;100745.22;5009425;27;102597;-49
2022/04/18 04:16:30;;;;;;;2.88;2.28;;;;;;;12.23;63.37;100740.88;5005353;28;103934;-49
2022/04/18 04:18:57;;;;;;;3.40;2.25;;;;;;;12.23;63.27;100746.31;4998724;27;102212;-49
2022/04/18 04:21:23;;;;;;;2.58;2.35;;;;;;;12.24;63.34;100747.94;5007399;27;102193;-48
2022/04/18 04:23:49;;;;;;;3.30;2.55;;;;;;;12.23;63.22;100740.88;5002268;28;102140;-49
2022/04/18 04:26:18;;;;;;;4.72;2.70;;;;;;;12.22;63.53;100739.22;5000457;28;104502;-49
2022/04/18 04:28:45;;;;;;;2.53;2.30;;;;;;;12.23;63.48;100731.88;4994278;27;102626;-48
2022/04/18 04:31:11;;;;;;;4.75;2.53;;;;;;;12.22;63.55;100728.28;5005860;28;102377;-49
2022/04/18 04:33:48;;;;;;;3.15;2.50;;;;;;;12.23;63.55;100724.50;5004292;28;102181;-49
2022/04/18 04:36:17;;;;;;;3.97;2.13;;;;;;;12.21;63.49;100726.66;5006876;28;103849;-50
2022/04/18 04:38:44;;;;;;;3.25;2.20;;;;;;;12.23;63.63;100726.41;4997001;27;102830;-49
2022/04/18 04:41:12;;;;;;;3.73;2.63;;;;;;;12.20;63.91;100727.78;4997234;27;102625;-49
2022/04/18 04:43:40;;;;;;;2.95;2.50;;;;;;;12.21;63.63;100715.75;4998315;28;102003;-49
2022/04/18 04:46:08;;;;;;;3.47;2.63;;;;;;;12.22;63.55;100708.38;5004314;27;104053;-50
2022/04/18 04:48:35;;;;;;;3.22;2.70;;;;;;;12.21;63.49;100715.75;5005341;28;102778;-50
2022/04/18 04:51:02;;;;;;;3.72;2.80;;;;;;;12.21;63.51;100706.75;5003377;27;102098;-49
2022/04/18 04:53:29;;;;;;;2.90;2.30;;;;;;;12.21;63.09;100710.31;5003006;27;102266;-49
2022/04/18 04:55:58;;;;;;;;;;;;;;;12.20;63.36;100705.13;4997304;28;104100;-49
2022/04/18 04:58:24;;;;;;;3.47;2.50;;;;;;;12.20;63.68;100705.94;5003668;28;103996;-49
2022/04/18 05:00:53;;;;;;;3.83;2.30;;;;;;;12.20;63.52;100707.88;5003542;27;102014;-49
2022/04/18 05:03:20;;;;;;;2.78;2.30;;;;;;;12.20;63.34;100703.22;5011487;27;102406;-49
2022/04/18 05:05:48;;;;;;;61.97;50.05;;;;;;;12.20;63.60;100708.69;5009803;27;104024;-50
2022/04/18 05:08:15;;;;;;;4.95;2.58;;;;;;;12.20;63.59;100719.59;4996479;27;102854;-49
2022/04/18 05:10:43;;;;;;;3.30;2.70;;;;;;;12.20;63.81;100707.88;5007288;27;102445;-49
2022/04/18 05:13:12;;;;;;;;;;;;;;;12.19;63.65;100707.06;5017449;27;102901;-49
2022/04/18 05:15:39;;;;;;;2.88;2.40;;;;;;;12.20;63.77;100700.50;5013467;27;103988;-49
2022/04/18 05:18:07;;;;;;;3.17;2.58;;;;;;;12.19;63.74;100704.31;5022499;27;102499;-50
2022/04/18 05:20:33;;;;;;;2.67;2.38;;;;;;;12.18;63.60;100705.41;5022985;27;102200;-50
2022/04/18 05:23:00;;;;;;;3.35;3.00;;;;;;;12.18;63.55;100710.84;4998697;27;102234;-50
2022/04/18 05:25:26;;;;;;;4.28;2.70;;;;;;;12.19;63.69;100709.78;5008347;27;103819;-49
2022/04/18 05:27:53;;;;;;;2.35;2.08;;;;;;;12.17;63.66;100709.25;5008460;27;102380;-52
2022/04/18 05:30:20;;;;;;;3.17;2.60;;;;;;;12.19;63.64;100708.97;4998315;27;102846;-49
2022/04/18 05:32:46;;;;;;;2.95;2.65;;;;;;;12.18;63.72;100710.84;4998126;27;102699;-50
2022/04/18 05:35:15;;;;;;;3.33;2.60;;;;;;;12.17;63.52;100703.78;4996509;27;104135;-51
2022/04/18 05:37:41;;;;;;;3.08;2.65;;;;;;;12.16;63.62;100704.88;4999372;27;102035;-49
2022/04/18 05:40:09;;;;;;;3.33;2.53;;;;;;;12.17;63.45;100714.69;5002218;28;102585;-49
2022/04/18 05:42:36;;;;;;;3.30;2.58;;;;;;;12.15;63.65;100703.25;5000202;27;102359;-49
2022/04/18 05:45:03;;;;;;;3.75;2.10;;;;;;;12.15;63.43;100708.72;4994197;27;103612;-49
2022/04/18 05:47:30;;;;;;;3.35;2.72;;;;;;;12.14;63.32;100707.06;4998765;28;103113;-48
2022/04/18 05:49:57;;;;;;;3.45;2.92;;;;;;;12.13;63.11;100702.72;4994917;27;102599;-49
2022/04/18 05:52:25;;;;;;;3.20;2.88;;;;;;;12.15;63.11;100705.16;5000214;28;104871;-49
2022/04/18 05:54:51;;;;;;;3.97;2.90;;;;;;;12.14;63.23;100704.34;5010382;27;104238;-49
2022/04/18 05:57:18;;;;;;;3.08;2.65;;;;;;;12.14;63.11;100709.00;5012516;27;102325;-49
2022/04/18 05:59:47;;;;;;;3.25;2.95;;;;;;;12.14;63.30;100707.06;5008330;27;101958;-49
2022/04/18 06:02:13;;;;;;;4.00;2.95;;;;;;;12.14;63.18;100704.34;4997035;27;102617;-48
2022/04/18 06:04:40;;;;;;;3.25;2.83;;;;;;;12.14;62.89;100704.34;5006811;27;103965;-50
2022/04/18 06:07:15;;;;;;;2.90;2.60;;;;;;;12.13;63.23;100697.25;4999450;27;102004;-50
2022/04/18 06:09:44;;;;;;;3.20;2.88;;;;;;;12.14;63.09;100704.34;5021957;27;102387;-51
2022/04/18 06:12:26;;;;;;;3.38;2.88;;;;;;;12.12;63.08;100706.56;5044396;27;102661;-50
2022/04/18 06:14:54;;;;;;;4.30;3.25;;;;;;;12.12;63.14;100703.81;5017923;27;104065;-49
2022/04/18 06:17:21;;;;;;;3.08;2.60;;;;;;;12.11;62.90;100702.16;5018652;27;102603;-49
2022/04/18 06:19:49;;;;;;;3.28;2.97;;;;;;;12.12;62.89;100698.38;5017347;27;102727;-49
2022/04/18 06:22:16;;;;;;;3.83;3.17;;;;;;;12.12;62.89;100701.09;5004093;27;102363;-50
2022/04/18 06:24:49;;;;;;;3.80;2.83;;;;;;;12.12;62.79;100695.63;4996259;27;104075;-49
2022/04/18 06:27:16;;;;;;;2.72;2.53;;;;;;;12.12;62.89;100695.63;4998995;27;102954;-49
2022/04/18 06:29:43;;;;;;;3.05;2.78;;;;;;;12.13;62.72;100697.25;5003398;27;102353;-49
2022/04/18 06:32:09;;;;;;;3.28;2.80;;;;;;;12.14;62.87;100698.88;5007392;27;102294;-49
2022/04/18 06:34:36;;;;;;;4.05;3.10;;;;;;;12.14;62.75;100698.88;5007949;27;108141;-50
2022/04/18 06:37:02;;;;;;;3.17;2.88;;;;;;;12.15;62.27;100681.44;5006815;27;102560;-50
2022/04/18 06:39:29;;;;;;;3.70;2.90;;;;;;;12.14;62.52;100677.06;5001002;27;102564;-50
2022/04/18 06:41:57;;;;;;;3.22;2.92;;;;;;;12.14;62.47;100698.88;5009936;27;102291;-49
2022/04/18 06:44:24;;;;;;;4.82;3.05;;;;;;;12.14;62.62;100707.06;5002133;27;103939;-49
2022/04/18 06:46:51;;;;;;;7.63;3.20;;;;;;;12.13;62.64;100691.81;4997130;28;102481;-49
2022/04/18 06:49:18;;;;;;;3.20;2.90;;;;;;;12.14;62.89;100692.63;4998969;27;102715;-49
2022/04/18 06:51:45;;;;;;;3.72;3.10;;;;;;;12.14;62.60;100684.44;5006576;28;102657;-49
2022/04/18 06:54:11;;;;;;;3.00;2.70;;;;;;;12.14;62.48;100679.78;5005532;28;104267;-48
2022/04/18 06:59:24;;;;;;;3.47;2.90;;;;;;;12.15;62.58;100688.78;4997899;28;102152;-48
2022/04/18 07:01:51;;;;;;;2.88;2.58;;;;;;;12.15;62.73;100683.31;5018659;27;102161;-49
2022/04/18 07:04:17;;;;;;;3.00;2.65;;;;;;;12.15;62.76;100683.31;5005562;27;104293;-49
2022/04/18 07:06:44;;;;;;;3.38;2.65;;;;;;;12.13;62.57;100680.91;4998443;28;102375;-49
2022/04/18 07:09:10;;;;;;;3.05;2.75;;;;;;;12.14;62.70;100682.50;5009002;27;102239;-49
2022/04/18 07:11:37;;;;;;;4.05;2.47;;;;;;;12.13;62.74;100691.00;5013039;27;102782;-51
2022/04/18 07:14:05;;;;;;;3.00;2.70;;;;;;;12.13;62.74;100683.63;5026606;27;103962;-50
2022/04/18 07:16:53;;;;;;;3.45;2.65;;;;;;;12.14;62.98;100679.78;5020718;27;102174;-49
2022/04/18 07:19:19;;;;;;;2.87;2.57;;;;;;;12.12;62.64;100679.28;5026159;27;103050;-49
2022/04/18 07:21:46;;;;;;;2.70;2.50;;;;;;;12.10;62.27;100670.53;5028748;27;102395;-50
2022/04/18 07:24:12;;;;;;;2.97;2.40;;;;;;;12.10;62.56;100676.00;5016370;27;103985;-49
2022/04/18 07:26:39;;;;;;;2.65;2.45;;;;;;;12.10;62.39;100681.47;4996324;28;102053;-49
2022/04/18 07:29:07;;;;;;;3.60;2.90;;;;;;;12.10;62.55;100676.00;5008798;27;102274;-48
2022/04/18 07:31:34;;;;;;;2.90;2.65;;;;;;;12.09;62.80;100662.66;4998274;27;102449;-49
2022/04/18 07:34:03;;;;;;;2.60;2.40;;;;;;;12.10;62.31;100670.53;5005444;27;104304;-49
2022/04/18 07:36:30;;;;;;;2.90;2.63;;;;;;;12.10;62.35;100664.28;5003593;27;103712;-51
2022/04/18 07:38:59;;;;;;;2.65;2.45;;;;;;;12.10;62.15;100659.63;5005628;27;102680;-49
2022/04/18 07:41:28;;;;;;;3.35;2.40;;;;;;;12.10;62.20;100658.81;5006508;27;103367;-49
2022/04/18 07:43:56;;;;;;;2.53;2.33;;;;;;;12.11;61.98;100660.44;4990860;28;103974;-49
2022/04/18 07:46:23;;;;;;;45.33;20.60;;;;;;;12.10;62.03;100667.81;5019767;27;102569;-49
2022/04/18 07:48:51;;;;;;;2.95;2.65;;;;;;;12.11;62.14;100665.91;5000856;28;102257;-49
2022/04/18 07:51:31;;;;;;;2.38;2.17;;;;;;;12.11;62.04;100669.44;5004593;28;102730;-49
2022/04/18 07:53:59;;;;;;;2.47;2.28;;;;;;;12.10;61.85;100654.19;4997756;28;103876;-49
2022/04/18 07:56:26;;;;;;;11.50;10.70;;;;;;;12.10;62.34;100659.63;5001784;27;102452;-49
2022/04/18 07:58:53;;;;;;;2.72;2.50;;;;;;;12.10;61.85;100654.19;4993294;28;102337;-48
2022/04/18 08:01:21;;;;;;;3.30;2.70;;;;;;;12.10;62.19;100659.63;4994263;28;102417;-48
2022/04/18 08:03:49;;;;;;;3.85;2.80;;;;;;;12.10;62.12;100654.19;4993412;27;104217;-49
2022/04/18 08:06:19;;;;;;;2.22;2.00;;;;;;;12.09;62.13;100657.19;5009088;28;102320;-49
2022/04/18 08:08:47;;;;;;;2.70;2.30;;;;;;;12.10;62.08;100647.91;4997993;27;102288;-48
2022/04/18 08:11:15;;;;;;;2.38;2.17;;;;;;;12.09;62.10;100643.56;4988549;28;102495;-49
2022/04/18 08:13:42;;;;;;;2.53;2.30;;;;;;;12.10;62.04;100637.00;5002021;28;103929;-49
2022/04/18 08:16:10;;;;;;;2.60;2.38;;;;;;;12.09;62.16;100640.84;4994811;28;101995;-49
2022/04/18 08:18:39;;;;;;;3.10;2.28;;;;;;;12.09;61.47;100636.19;4994542;28;102320;-49
2022/04/18 08:21:07;;;;;;;2.58;2.35;;;;;;;12.11;61.59;100644.88;5009819;28;102167;-49
2022/04/18 08:23:35;;;;;;;2.20;1.90;;;;;;;12.11;61.47;100630.44;5001705;28;103744;-48
2022/04/18 08:26:03;;;;;;;2.22;2.03;;;;;;;12.09;61.29;100619.81;4990617;28;102193;-48
2022/04/18 08:28:31;;;;;;;2.67;2.10;;;;;;;12.09;61.31;100614.38;4991321;28;102710;-49
2022/04/18 08:30:57;;;;;;;2.08;1.80;;;;;;;12.11;61.33;100627.72;4997339;27;102399;-48
2022/04/18 08:33:25;;;;;;;2.35;2.13;;;;;;;12.10;61.36;100632.34;4989657;28;103993;-48
2022/04/18 08:35:52;;;;;;;2.08;1.90;;;;;;;12.11;61.14;100623.06;4989594;27;102319;-49
2022/04/18 08:38:18;;;;;;;2.13;1.92;;;;;;;12.11;61.17;100627.72;4989271;28;102840;-48
2022/04/18 08:40:49;;;;;;;2.70;2.20;;;;;;;12.10;60.87;100626.09;5007233;28;102169;-49
2022/04/18 08:43:17;;;;;;;2.70;2.10;;;;;;;12.10;60.80;100624.16;4995877;28;103895;-48
2022/04/18 08:45:46;;;;;;;1.90;1.70;;;;;;;12.10;60.97;100626.91;4996479;27;102481;-49
2022/04/18 08:53:43;;;;;;;2.42;1.80;;;;;;;12.10;60.59;100617.91;4996192;28;104407;-50
2022/04/18 08:56:11;;;;;;;2.28;1.80;;;;;;;12.10;60.61;100620.63;5003090;27;102547;-50
2022/04/18 08:58:40;;;;;;;2.55;2.00;;;;;;;12.08;60.52;100617.34;4996870;28;102401;-49
2022/04/18 09:01:07;;;;;;;1.77;1.67;;;;;;;12.09;60.60;100621.75;5006873;28;102130;-49
2022/04/18 09:03:34;;;;;;;2.08;1.85;;;;;;;12.08;60.27;100610.00;5001668;27;103813;-49
2022/04/18 09:06:06;;;;;;;2.72;1.90;;;;;;;12.08;60.36;100612.75;4996597;28;102403;-49
2022/04/18 09:08:35;;;;;;;2.15;1.75;;;;;;;12.08;60.31;100612.75;5001999;27;103846;-50
2022/04/18 09:11:02;;;;;;;2.00;1.80;;;;;;;12.08;60.48;100615.47;5006628;28;102278;-49
2022/04/18 09:13:30;;;;;;;2.47;1.75;;;;;;;12.09;60.35;100616.28;4995496;28;104216;-48
2022/04/18 09:15:59;;;;;;;1.75;1.63;;;;;;;12.09;60.37;100616.28;4998265;27;103043;-50
2022/04/18 09:18:29;;;;;;;2.25;1.98;;;;;;;12.08;60.28;100611.91;4996708;28;102908;-48
2022/04/18 09:20:57;;;;;;;2.17;1.90;;;;;;;12.07;60.68;100605.63;5018758;27;102598;-48
2022/04/18 09:23:26;;;;;;;3.47;1.90;;;;;;;12.08;60.27;100604.56;5014302;27;104008;-48
2022/04/18 09:25:56;;;;;;;2.45;1.92;;;;;;;12.06;60.22;100601.28;5020375;27;102297;-50
2022/04/18 09:28:24;;;;;;;2.05;1.77;;;;;;;12.08;59.95;100593.66;5019708;27;102283;-50
2022/04/18 09:31:04;;;;;;;;;;;;;;;12.08;60.14;100596.38;5024366;27;104426;-50
2022/04/18 09:33:32;;;;;;;3.50;2.15;;;;;;;12.08;60.02;100601.00;5025609;27;107716;-50
2022/04/18 09:36:06;;;;;;;;;;;;;;;12.10;60.29;100601.53;5011689;27;102398;-50
2022/04/18 09:38:37;;;;;;;2.38;1.92;;;;;;;12.11;60.17;100598.50;5017973;27;102405;-49
2022/04/18 09:41:04;;;;;;;2.30;1.65;;;;;;;12.11;59.97;100601.25;5019758;27;102239;-50
2022/04/18 09:43:43;;;;;;;1.80;1.70;;;;;;;12.11;59.76;100594.97;5021007;27;104037;-50
2022/04/18 09:46:13;;;;;;;2.10;1.60;;;;;;;12.10;59.87;100588.72;4999277;27;102465;-49
2022/04/18 09:48:40;;;;;;;1.95;1.75;;;;;;;12.11;59.90;100573.16;5001771;27;102274;-50
2022/04/18 09:51:11;;;;;;;2.42;1.50;;;;;;;12.11;59.82;100582.13;5009675;28;102160;-49
2022/04/18 09:53:39;;;;;;;1.98;1.77;;;;;;;12.11;59.79;100589.50;5004754;27;103943;-48
2022/04/18 09:56:07;;;;;;;2.67;1.77;;;;;;;12.11;59.80;100575.88;5006029;27;102066;-49
2022/04/18 09:58:35;;;;;;;2.00;1.45;;;;;;;12.11;60.00;100573.97;4995450;28;102544;-48
2022/04/18 10:01:05;;;;;;;1.67;1.58;;;;;;;12.10;59.37;100579.72;5003990;28;102605;-49
2022/04/18 10:03:34;;;;;;;2.05;1.63;;;;;;;12.08;59.26;100574.56;4998841;27;103884;-49
2022/04/18 10:06:02;;;;;;;;;;;;;;;12.10;59.12;100569.63;5010635;27;102628;-50
2022/04/18 10:08:30;;;;;;;2.00;1.70;;;;;;;12.09;59.32;100567.19;5027299;27;102508;-49
2022/04/18 10:10:59;;;;;;;2.22;1.75;;;;;;;12.08;59.20;100569.09;5008944;27;102404;-49
2022/04/18 10:13:26;;;;;;;1.83;1.40;;;;;;;12.08;59.17;100577.28;5005350;27;104542;-50
2022/04/18 10:15:54;;;;;;;1.92;1.60;;;;;;;12.08;59.16;100585.47;5002352;27;102045;-48
2022/04/18 10:18:21;;;;;;;1.45;1.35;;;;;;;12.08;59.21;100573.72;4991798;27;102159;-49
2022/04/18 10:21:10;;;;;;;1.52;1.38;;;;;;;12.08;58.81;100590.91;4995583;27;102383;-50
2022/04/18 10:24:22;;;;;;;2.15;1.50;;;;;;;12.07;59.26;100566.63;4996714;27;103694;-49
2022/04/18 10:27:24;;;;;;;1.75;1.50;;;;;;;12.09;58.96;100573.44;5012331;27;102125;-49
2022/04/18 10:29:54;;;;;;;1.85;1.20;;;;;;;12.10;59.19;100572.34;5010229;28;102528;-50
2022/04/18 10:32:24;;;;;;;1.60;1.50;;;;;;;12.10;59.41;100563.34;5009713;27;102510;-49
2022/04/18 10:34:52;;;;;;;1.85;1.50;;;;;;;12.10;59.31;100566.06;4993579;27;103691;-50
2022/04/18 10:37:24;;;;;;;2.30;1.73;;;;;;;12.11;59.11;100557.59;5000392;27;106234;-49
2022/04/18 10:39:59;;;;;;;1.50;1.40;;;;;;;12.11;59.10;100571.22;4995782;27;102358;-49
2022/04/18 10:42:31;;;;;;;1.40;1.20;;;;;;;12.11;58.98;100546.69;5003633;27;102495;-49
2022/04/18 10:45:00;;;;;;;1.95;1.58;;;;;;;12.11;59.41;100554.06;4994141;27;103816;-49
2022/04/18 10:48:00;;;;;;;1.60;1.50;;;;;;;12.11;59.31;100565.78;5009181;27;102409;-50
2022/04/18 10:50:29;;;;;;;1.73;1.38;;;;;;;12.12;59.18;100552.97;5001365;27;102175;-49
2022/04/18 10:53:15;;;;;;;1.50;1.27;;;;;;;12.12;59.03;100555.72;4997192;27;102428;-49
2022/04/18 10:56:12;;;;;;;2.33;1.20;;;;;;;12.12;59.06;100555.72;5002343;27;108051;-49
2022/04/18 10:58:43;;;;;;;1.73;1.50;;;;;;;12.12;58.95;100559.25;5000384;27;102128;-49
2022/04/18 11:01:10;;;;;;;1.38;1.27;;;;;;;12.11;59.07;100545.88;5003352;27;102322;-49
2022/04/18 11:03:46;;;;;;;2.03;1.58;;;;;;;12.11;59.16;100557.59;5009476;27;102313;-50
2022/04/18 11:06:45;;;;;;;1.63;1.40;;;;;;;12.11;59.23;100556.78;4993988;27;103688;-49
2022/04/18 11:09:14;;;;;;;;;;;;;;;12.11;59.27;100560.31;5000077;28;102438;-48
2022/04/18 11:11:48;;;;;;;1.40;1.30;;;;;;;12.13;59.10;100538.22;5006410;27;102290;-49
2022/04/18 11:14:17;;;;;;;1.80;1.40;;;;;;;12.13;59.29;100544.50;5020083;27;102737;-49
2022/04/18 11:16:59;;;;;;;1.50;1.35;;;;;;;12.13;59.07;100555.41;5026714;27;104147;-49
2022/04/18 11:19:27;;;;;;;;;;;;;;;12.13;58.91;100539.03;5026524;27;102734;-49
2022/04/18 11:22:29;;;;;;;1.55;1.45;;;;;;;12.13;59.08;100533.59;5024638;27;102445;-49
2022/04/18 11:25:00;;;;;;;1.27;1.17;;;;;;;12.13;58.95;100533.59;5025677;27;102540;-50
2022/04/18 11:27:32;;;;;;;2.25;1.20;;;;;;;12.14;58.98;100518.84;5019334;27;103858;-49
2022/04/18 11:30:01;;;;;;;1.98;1.40;;;;;;;12.13;59.15;100514.50;5019802;27;102651;-49
2022/04/18 11:32:29;;;;;;;2.87;1.20;;;;;;;12.12;58.75;100514.78;5022985;27;102371;-49
2022/04/18 11:34:58;;;;;;;1.88;1.20;;;;;;;12.12;58.92;100515.59;5025196;27;102764;-49
2022/04/18 11:37:26;;;;;;;1.45;1.35;;;;;;;12.13;59.00;100522.66;5020723;27;104467;-48
2022/04/18 11:39:56;;;;;;;1.38;1.27;;;;;;;12.14;58.81;100518.03;5021692;27;102346;-48
2022/04/18 11:42:25;;;;;;;1.20;1.00;;;;;;;12.12;58.63;100542.88;5019066;27;102478;-48
2022/04/18 11:44:54;;;;;;;1.65;1.15;;;;;;;12.12;58.64;100531.97;5003173;28;102206;-49
2022/04/18 11:47:23;;;;;;;2.15;1.55;;;;;;;12.13;58.53;100536.31;5002612;28;104112;-49